CheckWX is a tool to help pilots better visualize weather data.  It is not intended as a substitute for an official pre-flight weather briefing.

07:34:06 UTC

CYVM TAF
Qikiqtarjuaq Airport
Qikiqtarjuaq, NU, Canada
TAF CYVM 140039Z 1401/1413 21008KT P6SM SCT080 BKN250 RMK FCST BASED ON AUTO OBS. NXT FCST BY 140700Z

Jul-14@
01:00 UTC

Jul-14 @ 01:00 UTC

Jul-14@
13:00 UTC

Jul-14 @ 13:00 UTC

TAF CYVM 140039Z 1401/1413 21008KT P6SM SCT080 BKN250 RMK FCST BASED ON AUTO OBS. NXT FCST BY 140700Z
Wind
  • 210° at 8 KTS
Cloud Levels
  • Scattered at 8,000' AGL
  • Broken at 25,000' AGL